createdAt,value
2023-03-01T00:00:36.366Z,1.672973633
2023-03-01T00:01:37.824Z,1.652832031
2023-03-01T00:02:38.677Z,1.683044434
2023-03-01T00:03:39.314Z,1.672973633
2023-03-01T00:04:40.136Z,1.672973633
2023-03-01T00:05:41.022Z,1.683044434
2023-03-01T00:06:41.976Z,1.64276123
2023-03-01T00:07:43.753Z,1.63269043
2023-03-01T00:08:44.467Z,1.612548828
2023-03-01T00:09:45.390Z,1.612548828
2023-03-01T00:10:46.787Z,1.64276123
2023-03-01T00:11:48.415Z,1.63269043
2023-03-01T00:12:49.032Z,1.602478027
2023-03-01T00:13:49.932Z,1.572265625
2023-03-01T00:14:50.654Z,1.602478027
2023-03-01T00:15:51.529Z,1.64276123
2023-03-01T00:16:52.467Z,1.672973633
2023-03-01T00:17:53.684Z,1.713256836
2023-03-01T00:19:25.454Z,1.713256836
2023-03-01T00:20:26.391Z,1.713256836
2023-03-01T00:21:27.259Z,1.703186035
2023-03-01T00:22:28.842Z,1.713256836
2023-03-01T00:23:29.618Z,1.713256836
2023-03-01T00:24:30.424Z,1.683044434
2023-03-01T00:25:31.128Z,1.652832031
2023-03-01T00:26:32.299Z,1.64276123
2023-03-01T00:27:32.957Z,1.612548828
2023-03-01T00:28:33.779Z,1.63269043
2023-03-01T00:29:34.491Z,1.63269043
2023-03-01T00:30:35.188Z,1.64276123
2023-03-01T00:31:35.962Z,1.63269043
2023-03-01T00:32:37.757Z,1.63269043
2023-03-01T00:33:38.636Z,1.612548828
2023-03-01T00:34:39.476Z,1.63269043
2023-03-01T00:35:40.364Z,1.612548828
2023-03-01T00:36:41.004Z,1.572265625
2023-03-01T00:37:41.936Z,1.572265625
2023-03-01T00:38:42.663Z,1.572265625
2023-03-01T00:39:43.465Z,1.562194824
2023-03-01T00:40:44.252Z,1.542053223
2023-03-01T00:41:44.956Z,1.531982422
2023-03-01T00:42:46.788Z,1.50177002
2023-03-01T00:43:47.665Z,1.491699219
2023-03-01T00:44:49.336Z,1.471557617
2023-03-01T00:45:50.083Z,1.491699219
2023-03-01T00:46:50.869Z,1.471557617
2023-03-01T00:47:51.705Z,1.441345215
2023-03-01T00:48:52.625Z,1.471557617
2023-03-01T00:50:23.925Z,1.461486816
2023-03-01T00:51:24.773Z,1.431274414
2023-03-01T00:52:26.461Z,1.461486816
2023-03-01T00:53:27.424Z,1.491699219
2023-03-01T00:54:29.202Z,1.471557617
2023-03-01T00:55:30.128Z,1.491699219
2023-03-01T00:56:31.321Z,1.471557617
2023-03-01T00:57:31.667Z,1.471557617
2023-03-01T00:58:32.412Z,1.491699219
2023-03-01T00:59:33.151Z,1.491699219
2023-03-01T01:00:34.042Z,1.471557617
2023-03-01T01:01:34.923Z,1.461486816
2023-03-01T01:02:36.316Z,1.471557617
2023-03-01T01:03:36.984Z,1.461486816
2023-03-01T01:04:37.917Z,1.461486816
2023-03-01T01:05:38.802Z,1.461486816
2023-03-01T01:06:39.583Z,1.461486816
2023-03-01T01:07:40.651Z,1.441345215
2023-03-01T01:08:41.395Z,1.491699219
2023-03-01T01:09:42.219Z,1.461486816
2023-03-01T01:10:43.755Z,1.461486816
2023-03-01T01:11:44.626Z,1.491699219
2023-03-01T01:12:46.291Z,1.471557617
2023-03-01T01:13:47.128Z,1.50177002
2023-03-01T01:14:47.821Z,1.50177002
2023-03-01T01:15:48.735Z,1.521911621
2023-03-01T01:16:49.476Z,1.531982422
2023-03-01T01:17:50.300Z,1.531982422
2023-03-01T01:18:50.999Z,1.531982422
2023-03-01T01:19:52.331Z,1.542053223
2023-03-01T01:21:23.513Z,1.531982422
2023-03-01T01:22:24.869Z,1.562194824
2023-03-01T01:23:25.706Z,1.542053223
2023-03-01T01:24:26.506Z,1.542053223
2023-03-01T01:25:27.188Z,1.572265625
2023-03-01T01:26:28.147Z,1.602478027
2023-03-01T01:27:28.948Z,1.572265625
2023-03-01T01:28:29.710Z,1.572265625
2023-03-01T01:29:30.444Z,1.562194824
2023-03-01T01:30:31.159Z,1.562194824
2023-03-01T01:31:32.922Z,1.542053223
2023-03-01T01:32:34.309Z,1.562194824
2023-03-01T01:33:35.318Z,1.572265625
2023-03-01T01:34:36.041Z,1.562194824
2023-03-01T01:35:36.977Z,1.542053223
2023-03-01T01:36:37.612Z,1.542053223
2023-03-01T01:37:38.438Z,1.562194824
2023-03-01T01:38:39.302Z,1.562194824
2023-03-01T01:39:40.120Z,1.542053223
2023-03-01T01:40:41.093Z,1.521911621
2023-03-01T01:41:42.738Z,1.542053223
2023-03-01T01:42:43.471Z,1.562194824
2023-03-01T01:43:44.807Z,1.612548828
2023-03-01T01:44:45.678Z,1.63269043
2023-03-01T01:45:46.372Z,1.672973633
2023-03-01T01:46:48.321Z,1.683044434
2023-03-01T01:47:48.941Z,1.672973633
2023-03-01T01:48:49.924Z,1.672973633
2023-03-01T01:49:51.300Z,1.652832031
2023-03-01T01:50:52.596Z,1.652832031
2023-03-01T01:52:23.883Z,1.672973633
2023-03-01T01:53:25.142Z,1.672973633
2023-03-01T01:54:25.938Z,1.683044434
2023-03-01T01:55:26.876Z,1.672973633
2023-03-01T01:56:27.745Z,1.672973633
2023-03-01T01:57:28.299Z,1.64276123
2023-03-01T01:58:29.037Z,1.64276123
2023-03-01T01:59:29.930Z,1.63269043
2023-03-01T02:00:31.307Z,1.63269043
2023-03-01T02:01:32.104Z,1.63269043
2023-03-01T02:02:33.957Z,1.64276123
2023-03-01T02:03:34.598Z,1.63269043
2023-03-01T02:04:35.358Z,1.63269043
2023-03-01T02:05:36.224Z,1.602478027
2023-03-01T02:06:37.138Z,1.572265625
2023-03-01T02:07:38.791Z,1.542053223
2023-03-01T02:08:39.564Z,1.521911621
2023-03-01T02:09:40.346Z,1.471557617
2023-03-01T02:10:41.810Z,1.461486816
2023-03-01T02:11:42.714Z,1.461486816
2023-03-01T02:12:44.258Z,1.461486816
2023-03-01T02:13:45.062Z,1.461486816
2023-03-01T02:14:45.734Z,1.431274414
2023-03-01T02:15:47.324Z,1.461486816
2023-03-01T02:16:48.104Z,1.461486816
2023-03-01T02:17:49.010Z,1.471557617
2023-03-01T02:18:49.747Z,1.491699219
2023-03-01T02:19:50.578Z,1.461486816
2023-03-01T02:20:51.415Z,1.441345215
2023-03-01T02:22:23.948Z,1.431274414
2023-03-01T02:23:25.321Z,1.421203613
2023-03-01T02:24:26.136Z,1.431274414
2023-03-01T02:25:26.867Z,1.441345215
2023-03-01T02:26:27.831Z,1.491699219
2023-03-01T02:27:28.603Z,1.491699219
2023-03-01T02:28:29.404Z,1.461486816
2023-03-01T02:29:30.294Z,1.461486816
2023-03-01T02:30:30.997Z,1.471557617
2023-03-01T02:31:32.354Z,1.471557617
2023-03-01T02:32:33.129Z,1.471557617
2023-03-01T02:33:34.822Z,1.491699219
2023-03-01T02:34:35.686Z,1.461486816
2023-03-01T02:35:36.463Z,1.441345215
2023-03-01T02:36:37.126Z,1.441345215
2023-03-01T02:37:38.016Z,1.441345215
2023-03-01T02:38:38.891Z,1.461486816
2023-03-01T02:39:39.810Z,1.491699219
2023-03-01T02:40:41.744Z,1.491699219
2023-03-01T02:41:42.614Z,1.50177002
2023-03-01T02:42:43.327Z,1.471557617
2023-03-01T02:43:44.798Z,1.441345215
2023-03-01T02:44:45.711Z,1.421203613
2023-03-01T02:45:47.221Z,1.38092041
2023-03-01T02:46:48.065Z,1.390991211
2023-03-01T02:47:48.581Z,1.421203613
2023-03-01T02:48:49.465Z,1.441345215
2023-03-01T02:49:50.311Z,1.431274414
2023-03-01T02:50:51.258Z,1.431274414
2023-03-01T02:52:22.462Z,1.431274414
2023-03-01T02:53:24.087Z,1.431274414
2023-03-01T02:54:24.880Z,1.390991211
2023-03-01T02:55:26.308Z,1.421203613
2023-03-01T02:56:27.163Z,1.390991211
2023-03-01T02:57:28.071Z,1.431274414
2023-03-01T02:58:28.690Z,1.421203613
2023-03-01T02:59:29.541Z,1.390991211
2023-03-01T03:00:30.595Z,1.390991211
2023-03-01T03:01:31.397Z,1.38092041
2023-03-01T03:02:32.161Z,1.390991211
2023-03-01T03:03:33.761Z,1.390991211
2023-03-01T03:04:34.577Z,1.421203613
2023-03-01T03:05:35.351Z,1.441345215
2023-03-01T03:06:36.311Z,1.441345215
2023-03-01T03:07:37.128Z,1.461486816
2023-03-01T03:08:38.005Z,1.471557617
2023-03-01T03:09:38.599Z,1.461486816
2023-03-01T03:10:39.521Z,1.461486816
2023-03-01T03:11:41.202Z,1.491699219
2023-03-01T03:12:42.010Z,1.50177002
2023-03-01T03:13:43.623Z,1.50177002
2023-03-01T03:14:44.299Z,1.531982422
2023-03-01T03:15:45.219Z,1.50177002
2023-03-01T03:16:46.104Z,1.521911621
2023-03-01T03:17:46.896Z,1.50177002
2023-03-01T03:18:48.298Z,1.471557617
2023-03-01T03:19:48.981Z,1.50177002
2023-03-01T03:20:49.792Z,1.50177002
2023-03-01T03:21:50.611Z,1.531982422
2023-03-01T03:23:23.278Z,1.531982422
2023-03-01T03:24:24.059Z,1.542053223
2023-03-01T03:25:24.891Z,1.531982422
2023-03-01T03:26:25.610Z,1.531982422
2023-03-01T03:27:26.416Z,1.531982422
2023-03-01T03:28:27.260Z,1.542053223
2023-03-01T03:29:28.141Z,1.562194824
2023-03-01T03:30:28.932Z,1.542053223
2023-03-01T03:31:29.595Z,1.542053223
2023-03-01T03:32:30.518Z,1.542053223
2023-03-01T03:33:32.319Z,1.562194824
2023-03-01T03:34:33.297Z,1.562194824
2023-03-01T03:35:34.177Z,1.542053223
2023-03-01T03:36:34.995Z,1.562194824
2023-03-01T03:37:35.678Z,1.542053223
2023-03-01T03:38:36.567Z,1.542053223
2023-03-01T03:39:37.400Z,1.572265625
2023-03-01T03:40:38.262Z,1.542053223
2023-03-01T03:41:39.610Z,1.542053223
2023-03-01T03:42:40.308Z,1.531982422
2023-03-01T03:43:41.787Z,1.562194824
2023-03-01T03:44:42.562Z,1.572265625
2023-03-01T03:45:44.345Z,1.602478027
2023-03-01T03:46:45.103Z,1.63269043
2023-03-01T03:47:45.888Z,1.63269043
2023-03-01T03:48:46.748Z,1.63269043
2023-03-01T03:49:48.299Z,1.63269043
2023-03-01T03:50:49.103Z,1.612548828
2023-03-01T03:51:49.911Z,1.572265625
2023-03-01T03:52:51.028Z,1.542053223
2023-03-01T03:54:23.235Z,1.531982422
2023-03-01T03:55:24.046Z,1.542053223
2023-03-01T03:56:24.985Z,1.542053223
2023-03-01T03:57:25.714Z,1.542053223
2023-03-01T03:58:26.455Z,1.531982422
2023-03-01T03:59:27.279Z,1.542053223
2023-03-01T04:00:28.123Z,1.531982422
2023-03-01T04:01:28.999Z,1.562194824
2023-03-01T04:02:29.795Z,1.572265625
2023-03-01T04:03:31.241Z,1.562194824
2023-03-01T04:04:31.938Z,1.562194824
2023-03-01T04:05:32.828Z,1.612548828
2023-03-01T04:06:33.662Z,1.612548828
2023-03-01T04:07:34.550Z,1.602478027
2023-03-01T04:08:35.275Z,1.542053223
2023-03-01T04:09:35.911Z,1.531982422
2023-03-01T04:10:36.695Z,1.50177002
2023-03-01T04:11:37.533Z,1.471557617
2023-03-01T04:12:38.519Z,1.491699219
2023-03-01T04:13:39.815Z,1.50177002
2023-03-01T04:14:40.812Z,1.521911621
2023-03-01T04:15:41.509Z,1.521911621
2023-03-01T04:16:42.441Z,1.531982422
2023-03-01T04:17:44.221Z,1.562194824
2023-03-01T04:18:44.981Z,1.572265625
2023-03-01T04:19:45.895Z,1.572265625
2023-03-01T04:20:46.542Z,1.572265625
2023-03-01T04:21:47.276Z,1.562194824
2023-03-01T04:22:48.699Z,1.531982422
2023-03-01T04:23:49.515Z,1.531982422
2023-03-01T04:24:51.231Z,1.491699219
2023-03-01T04:26:22.436Z,1.50177002
2023-03-01T04:27:23.265Z,1.491699219
2023-03-01T04:28:24.101Z,1.50177002
2023-03-01T04:29:24.917Z,1.491699219
2023-03-01T04:30:25.926Z,1.50177002
2023-03-01T04:31:26.621Z,1.531982422
2023-03-01T04:32:27.352Z,1.531982422
2023-03-01T04:33:28.049Z,1.531982422
2023-03-01T04:34:29.810Z,1.521911621
2023-03-01T04:35:30.702Z,1.50177002
2023-03-01T04:36:32.550Z,1.50177002
2023-03-01T04:37:32.778Z,1.491699219
2023-03-01T04:38:33.728Z,1.471557617
2023-03-01T04:39:34.589Z,1.50177002
2023-03-01T04:40:35.355Z,1.542053223
2023-03-01T04:41:36.198Z,1.562194824
2023-03-01T04:42:36.890Z,1.572265625
2023-03-01T04:43:38.560Z,1.562194824
2023-03-01T04:44:39.330Z,1.542053223
2023-03-01T04:45:41.006Z,1.531982422
2023-03-01T04:46:41.687Z,1.542053223
2023-03-01T04:47:42.468Z,1.562194824
2023-03-01T04:48:43.874Z,1.562194824
2023-03-01T04:49:44.502Z,1.602478027
2023-03-01T04:50:45.410Z,1.542053223
2023-03-01T04:51:46.182Z,1.531982422
2023-03-01T04:52:47.070Z,1.521911621
2023-03-01T04:53:47.804Z,1.50177002
2023-03-01T04:54:49.191Z,1.50177002
2023-03-01T04:55:50.452Z,1.471557617
2023-03-01T04:57:21.687Z,1.491699219
2023-03-01T04:58:22.430Z,1.471557617
2023-03-01T04:59:23.370Z,1.471557617
2023-03-01T05:00:24.066Z,1.491699219
2023-03-01T05:01:24.925Z,1.50177002
2023-03-01T05:02:25.798Z,1.461486816
2023-03-01T05:03:26.540Z,1.461486816
2023-03-01T05:04:28.389Z,1.461486816
2023-03-01T05:05:28.947Z,1.461486816
2023-03-01T05:06:30.288Z,1.471557617
2023-03-01T05:07:30.709Z,1.491699219
2023-03-01T05:08:31.551Z,1.521911621
2023-03-01T05:09:32.293Z,1.521911621
2023-03-01T05:10:33.020Z,1.542053223
2023-03-01T05:11:33.826Z,1.572265625
2023-03-01T05:12:35.275Z,1.612548828
2023-03-01T05:13:36.037Z,1.612548828
2023-03-01T05:14:37.732Z,1.602478027
2023-03-01T05:15:38.431Z,1.612548828
2023-03-01T05:16:39.225Z,1.612548828
2023-03-01T05:17:39.968Z,1.64276123
2023-03-01T05:18:41.817Z,1.612548828
2023-03-01T05:19:42.569Z,1.63269043
2023-03-01T05:20:43.235Z,1.612548828
2023-03-01T05:21:44.082Z,1.562194824
2023-03-01T05:22:44.853Z,1.542053223
2023-03-01T05:23:45.745Z,1.542053223
2023-03-01T05:24:47.204Z,1.562194824
2023-03-01T05:25:48.033Z,1.562194824
2023-03-01T05:26:48.696Z,1.612548828
2023-03-01T05:27:49.498Z,1.562194824
2023-03-01T05:29:20.754Z,1.572265625
2023-03-01T05:30:21.650Z,1.602478027
2023-03-01T05:31:22.422Z,1.602478027
2023-03-01T05:32:23.043Z,1.63269043
2023-03-01T05:33:23.921Z,1.602478027
2023-03-01T05:34:25.280Z,1.542053223
2023-03-01T05:35:26.219Z,1.542053223
2023-03-01T05:36:26.915Z,1.50177002
2023-03-01T05:37:28.289Z,1.50177002
2023-03-01T05:38:28.967Z,1.471557617
2023-03-01T05:39:29.794Z,1.461486816
2023-03-01T05:40:30.658Z,1.431274414
2023-03-01T05:41:31.425Z,1.390991211
2023-03-01T05:42:32.359Z,1.38092041
2023-03-01T05:43:32.991Z,1.360778809
2023-03-01T05:44:34.359Z,1.340637207
2023-03-01T05:45:35.192Z,1.340637207
2023-03-01T05:46:36.764Z,1.350708008
2023-03-01T05:47:37.554Z,1.360778809
2023-03-01T05:48:38.284Z,1.360778809
2023-03-01T05:49:39.816Z,1.350708008
2023-03-01T05:50:41.028Z,1.38092041
2023-03-01T05:51:41.804Z,1.38092041
2023-03-01T05:52:42.664Z,1.421203613
2023-03-01T05:53:43.361Z,1.471557617
2023-03-01T05:54:44.726Z,1.471557617
2023-03-01T05:55:45.649Z,1.461486816
2023-03-01T05:56:46.371Z,1.491699219
2023-03-01T05:57:47.219Z,1.441345215
2023-03-01T05:58:47.906Z,1.461486816
2023-03-01T05:59:48.653Z,1.421203613
2023-03-01T06:01:20.202Z,1.431274414
2023-03-01T06:02:21.138Z,1.441345215
2023-03-01T06:03:21.939Z,1.421203613
2023-03-01T06:04:23.375Z,1.421203613
2023-03-01T06:05:24.132Z,1.390991211
2023-03-01T06:06:24.750Z,1.390991211
2023-03-01T06:07:25.611Z,1.421203613
2023-03-01T06:08:27.345Z,1.431274414
2023-03-01T06:09:28.235Z,1.441345215
2023-03-01T06:10:28.889Z,1.441345215
2023-03-01T06:11:29.622Z,1.471557617
2023-03-01T06:12:30.314Z,1.491699219
2023-03-01T06:13:31.254Z,1.531982422
2023-03-01T06:14:32.853Z,1.562194824
2023-03-01T06:15:34.305Z,1.572265625
2023-03-01T06:16:34.491Z,1.612548828
2023-03-01T06:17:35.239Z,1.63269043
2023-03-01T06:18:36.813Z,1.63269043
2023-03-01T06:19:37.685Z,1.63269043
2023-03-01T06:20:38.502Z,1.602478027
2023-03-01T06:21:39.224Z,1.602478027
2023-03-01T06:22:39.884Z,1.562194824
2023-03-01T06:23:40.880Z,1.531982422
2023-03-01T06:24:42.269Z,1.562194824
2023-03-01T06:25:43.060Z,1.562194824
2023-03-01T06:26:43.909Z,1.602478027
2023-03-01T06:27:44.510Z,1.602478027
2023-03-01T06:28:45.361Z,1.572265625
2023-03-01T06:29:46.230Z,1.572265625
2023-03-01T06:30:47.169Z,1.602478027
2023-03-01T06:31:47.975Z,1.602478027
2023-03-01T06:32:48.568Z,1.652832031
2023-03-01T06:34:19.776Z,1.672973633
2023-03-01T06:35:21.394Z,1.652832031
2023-03-01T06:36:22.041Z,1.64276123
2023-03-01T06:37:22.968Z,1.64276123
2023-03-01T06:38:23.632Z,1.63269043
2023-03-01T06:39:24.301Z,1.612548828
2023-03-01T06:40:25.152Z,1.572265625
2023-03-01T06:41:25.940Z,1.572265625
2023-03-01T06:42:26.838Z,1.572265625
2023-03-01T06:43:27.535Z,1.572265625
2023-03-01T06:44:28.162Z,1.562194824
2023-03-01T06:45:29.711Z,1.542053223
2023-03-01T06:46:30.848Z,1.542053223
2023-03-01T06:47:31.418Z,1.572265625
2023-03-01T06:48:32.736Z,1.602478027
2023-03-01T06:49:33.551Z,1.572265625
2023-03-01T06:50:34.282Z,1.602478027
2023-03-01T06:51:35.119Z,1.612548828
2023-03-01T06:52:35.939Z,1.602478027
2023-03-01T06:53:36.840Z,1.602478027
2023-03-01T06:54:37.559Z,1.602478027
2023-03-01T06:55:39.032Z,1.612548828
2023-03-01T06:56:39.960Z,1.612548828
2023-03-01T06:57:41.142Z,1.612548828
2023-03-01T06:58:41.919Z,1.612548828
2023-03-01T06:59:42.554Z,1.63269043
2023-03-01T07:00:43.251Z,1.64276123
2023-03-01T07:01:44.076Z,1.652832031
2023-03-01T07:02:44.813Z,1.672973633
2023-03-01T07:03:45.628Z,1.683044434
2023-03-01T07:04:47.218Z,1.683044434
2023-03-01T07:05:48.726Z,1.713256836
2023-03-01T07:07:19.752Z,1.723327637
2023-03-01T07:08:20.598Z,1.713256836
2023-03-01T07:09:21.376Z,1.723327637
2023-03-01T07:10:22.174Z,1.713256836
2023-03-01T07:11:22.854Z,1.713256836
2023-03-01T07:12:24.023Z,1.703186035
2023-03-01T07:13:24.844Z,1.672973633
2023-03-01T07:14:25.625Z,1.672973633
2023-03-01T07:15:27.321Z,1.683044434
2023-03-01T07:16:28.852Z,1.713256836
2023-03-01T07:17:29.437Z,1.723327637
2023-03-01T07:18:30.187Z,1.723327637
2023-03-01T07:19:31.035Z,1.723327637
2023-03-01T07:20:32.680Z,1.753540039
2023-03-01T07:21:33.499Z,1.753540039
2023-03-01T07:22:34.147Z,1.813964844
2023-03-01T07:23:34.951Z,1.834106445
2023-03-01T07:24:35.760Z,1.834106445
2023-03-01T07:25:37.160Z,1.813964844
2023-03-01T07:26:38.054Z,1.773681641
2023-03-01T07:27:38.735Z,1.773681641
2023-03-01T07:28:39.446Z,1.753540039
2023-03-01T07:29:40.183Z,1.743469238
2023-03-01T07:30:41.103Z,1.743469238
2023-03-01T07:31:41.891Z,1.753540039
2023-03-01T07:32:42.746Z,1.773681641
2023-03-01T07:33:43.406Z,1.753540039
2023-03-01T07:34:44.104Z,1.743469238
2023-03-01T07:35:45.717Z,1.743469238
2023-03-01T07:36:46.569Z,1.743469238
2023-03-01T07:37:47.320Z,1.743469238
2023-03-01T07:38:48.470Z,1.723327637
2023-03-01T07:40:19.734Z,1.723327637
2023-03-01T07:41:21.227Z,1.713256836
2023-03-01T07:42:22.097Z,1.723327637
2023-03-01T07:43:22.907Z,1.753540039
2023-03-01T07:44:23.864Z,1.753540039
2023-03-01T07:45:25.236Z,1.753540039
2023-03-01T07:46:26.124Z,1.773681641
2023-03-01T07:47:26.901Z,1.753540039
2023-03-01T07:48:28.759Z,1.773681641
2023-03-01T07:49:29.511Z,1.773681641
2023-03-01T07:50:30.177Z,1.793823242
2023-03-01T07:51:30.880Z,1.773681641
2023-03-01T07:52:31.783Z,1.793823242
2023-03-01T07:53:32.573Z,1.773681641
2023-03-01T07:54:33.521Z,1.773681641
2023-03-01T07:55:35.223Z,1.773681641
2023-03-01T07:56:35.951Z,1.793823242
2023-03-01T07:57:36.873Z,1.753540039
2023-03-01T07:58:37.651Z,1.793823242
2023-03-01T07:59:38.446Z,1.793823242
2023-03-01T08:00:39.051Z,1.813964844
2023-03-01T08:01:40.407Z,1.824035645
2023-03-01T08:02:41.233Z,1.813964844
2023-03-01T08:03:42.001Z,1.813964844
2023-03-01T08:04:42.938Z,1.813964844
2023-03-01T08:05:44.294Z,1.824035645
2023-03-01T08:06:45.111Z,1.824035645
2023-03-01T08:07:45.746Z,1.813964844
2023-03-01T08:08:46.627Z,1.813964844
2023-03-01T08:09:47.476Z,1.793823242
2023-03-01T08:11:19.565Z,1.813964844
2023-03-01T08:12:20.197Z,1.824035645
2023-03-01T08:13:21.022Z,1.793823242
2023-03-01T08:14:21.850Z,1.824035645
2023-03-01T08:15:23.373Z,1.813964844
2023-03-01T08:16:24.217Z,1.813964844
2023-03-01T08:17:24.854Z,1.834106445
2023-03-01T08:18:26.347Z,1.824035645
2023-03-01T08:19:26.991Z,1.854248047
2023-03-01T08:20:28.779Z,1.854248047
2023-03-01T08:21:29.549Z,1.884460449
2023-03-01T08:22:30.274Z,1.89453125
2023-03-01T08:23:31.178Z,1.924743652
2023-03-01T08:24:32.750Z,1.924743652
2023-03-01T08:25:34.290Z,1.954956055
2023-03-01T08:26:35.123Z,1.995239258
2023-03-01T08:27:35.758Z,2.005310059
2023-03-01T08:28:36.660Z,2.015380859
2023-03-01T08:29:37.515Z,2.045593262
2023-03-01T08:30:38.376Z,2.075805664
2023-03-01T08:31:39.209Z,2.085876465
2023-03-01T08:32:39.853Z,2.085876465
2023-03-01T08:33:40.821Z,2.106018066
2023-03-01T08:34:42.601Z,2.116088867
2023-03-01T08:35:43.353Z,2.106018066
2023-03-01T08:36:44.053Z,2.106018066
2023-03-01T08:37:44.768Z,2.106018066
2023-03-01T08:38:45.426Z,2.116088867
2023-03-01T08:39:46.364Z,2.136230469
2023-03-01T08:41:18.398Z,2.14630127
2023-03-01T08:42:19.188Z,2.136230469
2023-03-01T08:43:19.876Z,2.14630127
2023-03-01T08:44:20.746Z,2.176513672
2023-03-01T08:45:21.566Z,2.186584473
2023-03-01T08:46:23.271Z,2.196655273
2023-03-01T08:47:24.021Z,2.196655273
2023-03-01T08:48:25.809Z,2.216796875
2023-03-01T08:49:26.568Z,2.226867676
2023-03-01T08:50:27.355Z,2.226867676
2023-03-01T08:51:28.419Z,2.257080078
2023-03-01T08:52:29.017Z,2.257080078
2023-03-01T08:53:29.873Z,2.267150879
2023-03-01T08:54:30.554Z,2.257080078
2023-03-01T08:55:32.238Z,2.257080078
2023-03-01T08:56:33.114Z,2.257080078
2023-03-01T08:57:34.748Z,2.247009277
2023-03-01T08:58:35.419Z,2.226867676
2023-03-01T08:59:36.187Z,2.226867676
2023-03-01T09:00:36.975Z,2.226867676
2023-03-01T09:01:37.982Z,2.196655273
2023-03-01T09:02:38.784Z,2.186584473
2023-03-01T09:03:40.286Z,2.186584473
2023-03-01T09:04:40.986Z,2.186584473
2023-03-01T09:05:42.255Z,2.186584473
2023-03-01T09:06:43.864Z,2.196655273
2023-03-01T09:07:44.539Z,2.196655273
2023-03-01T09:08:45.258Z,2.196655273
2023-03-01T09:09:45.923Z,2.196655273
2023-03-01T09:10:46.764Z,2.247009277
2023-03-01T09:12:18.661Z,2.247009277
2023-03-01T09:13:20.266Z,2.226867676
2023-03-01T09:14:20.946Z,2.226867676
2023-03-01T09:15:21.772Z,2.247009277
2023-03-01T09:16:23.135Z,2.257080078
2023-03-01T09:17:24.161Z,2.267150879
2023-03-01T09:18:24.886Z,2.28729248
2023-03-01T09:19:27.317Z,2.297363281
2023-03-01T09:20:27.253Z,2.297363281
2023-03-01T09:21:39.461Z,2.297363281
2023-03-01T09:22:28.999Z,2.297363281
2023-03-01T09:23:29.869Z,2.267150879
2023-03-01T09:24:30.625Z,2.28729248
2023-03-01T09:25:32.221Z,2.267150879
2023-03-01T09:26:33.590Z,2.257080078
2023-03-01T09:27:34.728Z,2.247009277
2023-03-01T09:28:35.606Z,2.257080078
2023-03-01T09:29:36.252Z,2.226867676
2023-03-01T09:30:37.087Z,2.216796875
2023-03-01T09:31:37.690Z,2.216796875
2023-03-01T09:32:39.331Z,2.216796875
2023-03-01T09:33:40.073Z,2.216796875
2023-03-01T09:34:41.155Z,2.216796875
2023-03-01T09:35:41.891Z,2.247009277
2023-03-01T09:36:43.039Z,2.267150879
2023-03-01T09:37:43.846Z,2.267150879
2023-03-01T09:38:44.639Z,2.28729248
2023-03-01T09:39:46.224Z,2.28729248
2023-03-01T09:41:17.594Z,2.28729248
2023-03-01T09:42:18.288Z,2.267150879
2023-03-01T09:43:19.772Z,2.257080078
2023-03-01T09:44:20.617Z,2.257080078
2023-03-01T09:45:22.380Z,2.257080078
2023-03-01T09:46:23.781Z,2.257080078
2023-03-01T09:47:24.340Z,2.28729248
2023-03-01T09:48:25.734Z,2.28729248
2023-03-01T09:49:27.208Z,2.257080078
2023-03-01T09:50:28.004Z,2.247009277
2023-03-01T09:51:29.588Z,2.247009277
2023-03-01T09:52:31.241Z,2.247009277
2023-03-01T09:53:31.916Z,2.216796875
2023-03-01T09:54:33.906Z,2.226867676
2023-03-01T09:55:35.290Z,2.216796875
2023-03-01T09:56:36.828Z,2.226867676
2023-03-01T09:57:38.259Z,2.257080078
2023-03-01T09:58:39.166Z,2.247009277
2023-03-01T09:59:39.970Z,2.257080078
2023-03-01T10:00:41.111Z,2.257080078
2023-03-01T10:01:41.940Z,2.247009277
2023-03-01T10:02:43.670Z,2.257080078
2023-03-01T10:03:44.417Z,2.317504883
2023-03-01T10:04:45.104Z,2.428283691
2023-03-01T10:06:32.232Z,2.468566895
2023-03-01T10:07:18.499Z,2.478637695
2023-03-01T10:08:19.200Z,2.508850098
2023-03-01T10:09:19.971Z,2.498779297
2023-03-01T10:10:21.755Z,2.498779297
2023-03-01T10:11:24.940Z,2.508850098
2023-03-01T10:12:23.429Z,2.549133301
2023-03-01T10:13:24.108Z,2.528991699
2023-03-01T10:14:24.918Z,2.549133301
2023-03-01T10:15:26.219Z,2.579345703
2023-03-01T10:16:27.717Z,2.559204102
2023-03-01T10:17:28.448Z,2.549133301
2023-03-01T10:18:29.130Z,2.549133301
2023-03-01T10:19:30.710Z,2.549133301
2023-03-01T10:20:31.424Z,2.549133301
2023-03-01T10:21:32.922Z,2.549133301
2023-03-01T10:22:33.173Z,2.528991699
2023-03-01T10:23:34.088Z,2.549133301
2023-03-01T10:24:34.786Z,2.528991699
2023-03-01T10:25:36.291Z,2.528991699
2023-03-01T10:26:37.695Z,2.549133301
2023-03-01T10:27:38.461Z,2.528991699
2023-03-01T10:28:40.058Z,2.528991699
2023-03-01T10:29:40.979Z,2.528991699
2023-03-01T10:30:41.833Z,2.528991699
2023-03-01T10:31:42.670Z,2.579345703
2023-03-01T10:32:43.500Z,2.559204102
2023-03-01T10:33:44.275Z,2.589416504
2023-03-01T10:34:45.084Z,2.559204102
2023-03-01T10:35:45.778Z,2.579345703
2023-03-01T10:37:17.559Z,2.559204102
2023-03-01T10:38:18.251Z,2.549133301
2023-03-01T10:39:19.085Z,2.559204102
2023-03-01T10:40:19.816Z,2.589416504
2023-03-01T10:41:20.582Z,2.589416504
2023-03-01T10:42:21.248Z,2.619628906
2023-03-01T10:43:22.718Z,2.629699707
2023-03-01T10:44:23.390Z,2.619628906
2023-03-01T10:45:25.839Z,2.619628906
2023-03-01T10:46:24.965Z,2.619628906
2023-03-01T10:47:26.093Z,2.629699707
2023-03-01T10:48:26.785Z,2.629699707
2023-03-01T10:49:27.443Z,2.659912109
2023-03-01T10:50:29.234Z,2.690124512
2023-03-01T10:51:30.228Z,2.690124512
2023-03-01T10:52:30.640Z,2.710266113
2023-03-01T10:53:31.314Z,2.740478516
2023-03-01T10:54:32.710Z,2.730407715
2023-03-01T10:55:33.591Z,2.710266113
2023-03-01T10:56:34.223Z,2.690124512
2023-03-01T10:57:35.557Z,2.710266113
2023-03-01T10:58:36.180Z,2.710266113
2023-03-01T10:59:36.987Z,2.730407715
2023-03-01T11:00:37.699Z,2.730407715
2023-03-01T11:01:38.514Z,2.730407715
2023-03-01T11:02:39.144Z,2.740478516
2023-03-01T11:03:39.865Z,2.740478516
2023-03-01T11:04:41.577Z,2.730407715
2023-03-01T11:05:42.368Z,2.740478516
2023-03-01T11:06:43.779Z,2.730407715
2023-03-01T11:07:44.375Z,2.730407715
2023-03-01T11:08:45.269Z,2.730407715
2023-03-01T11:10:16.567Z,2.760620117
2023-03-01T11:11:17.217Z,2.760620117